Time;durP1;ratioP1;P1;durP2;ratioP2;P2;SDS_P1;SDS_P2;PMS_P1;PMS_P2;Temp;Humidity;BMP_temperature;BMP_pressure;BME280_temperature;BME280_humidity;BME280_pressure;Samples;Min_cycle;Max_cycle;Signal;HPM_P1;HPM_P2
2021/06/25 00:02:25;;;;;;;29.33;24.52;;;18.10;99.90;;;;;;5013329;28;20056;-79
2021/06/25 00:04:52;;;;;;;30.38;24.08;;;18.10;99.90;;;;;;5012795;28;20050;-80
2021/06/25 00:07:21;;;;;;;28.15;23.08;;;18.10;99.90;;;;;;5014335;28;20158;-80
2021/06/25 00:09:48;;;;;;;27.58;22.75;;;18.10;99.90;;;;;;5014545;28;20045;-80
2021/06/25 00:12:19;;;;;;;30.65;24.77;;;18.10;99.90;;;;;;5015844;28;20056;-80
2021/06/25 00:14:46;;;;;;;26.13;22.67;;;18.10;99.90;;;;;;5025330;28;20048;-80
2021/06/25 00:17:13;;;;;;;29.38;24.77;;;18.20;99.90;;;;;;5035248;28;20038;-80
2021/06/25 00:19:41;;;;;;;27.48;23.40;;;18.20;99.90;;;;;;5035686;28;20045;-82
2021/06/25 00:22:11;;;;;;;31.23;24.85;;;18.10;99.90;;;;;;5035511;28;20034;-82
2021/06/25 00:24:39;;;;;;;36.25;25.05;;;18.10;99.90;;;;;;5035205;28;20034;-82
2021/06/25 00:27:06;;;;;;;31.20;25.40;;;18.10;99.90;;;;;;5033391;28;20053;-82
2021/06/25 00:29:34;;;;;;;29.58;25.15;;;18.00;99.90;;;;;;5019623;28;20133;-83
2021/06/25 00:32:03;;;;;;;31.90;25.35;;;18.00;99.90;;;;;;5018356;28;20188;-83
2021/06/25 00:34:30;;;;;;;31.08;26.13;;;18.00;99.90;;;;;;5017321;28;20108;-82
2021/06/25 00:37:00;;;;;;;36.75;27.35;;;17.90;99.90;;;;;;5020857;28;20340;-82
2021/06/25 00:39:27;;;;;;;33.25;27.08;;;17.80;99.90;;;;;;5022080;28;20081;-81
2021/06/25 00:41:54;;;;;;;39.05;29.05;;;17.80;99.90;;;;;;5021050;28;20092;-82
2021/06/25 00:44:22;;;;;;;35.55;27.42;;;17.70;99.90;;;;;;5021487;28;20066;-83
2021/06/25 00:46:50;;;;;;;44.90;29.20;;;17.70;99.90;;;;;;5021056;28;20050;-82
2021/06/25 00:49:23;;;;;;;37.22;29.92;;;17.50;99.90;;;;;;5021774;28;20475;-83
2021/06/25 00:51:50;;;;;;;41.47;28.98;;;17.40;99.90;;;;;;5020702;28;20085;-82
2021/06/25 00:54:19;;;;;;;35.55;28.90;;;17.40;99.90;;;;;;5019758;28;20053;-82
2021/06/25 00:56:46;;;;;;;37.50;29.75;;;17.40;99.90;;;;;;5024692;28;20081;-82
2021/06/25 00:59:13;;;;;;;40.33;30.52;;;17.30;99.90;;;;;;5034803;28;20089;-81
2021/06/25 01:01:40;;;;;;;42.78;31.63;;;17.20;99.90;;;;;;5029052;28;20062;-82
2021/06/25 01:04:08;;;;;;;44.53;29.98;;;17.20;99.90;;;;;;5019062;28;20148;-82
2021/06/25 01:06:37;;;;;;;37.10;30.13;;;17.20;99.90;;;;;;5019597;28;20062;-82
2021/06/25 01:09:05;;;;;;;41.20;30.15;;;17.20;99.90;;;;;;5019412;28;20081;-82
2021/06/25 01:11:33;;;;;;;48.15;30.60;;;17.20;99.90;;;;;;5018856;28;20049;-81
2021/06/25 01:14:00;;;;;;;41.15;31.67;;;17.10;99.90;;;;;;5018660;28;20059;-81
2021/06/25 01:16:27;;;;;;;37.90;31.50;;;17.10;99.90;;;;;;5019470;28;20046;-82
2021/06/25 01:18:54;;;;;;;43.05;31.58;;;17.10;99.90;;;;;;5019309;28;20421;-82
2021/06/25 01:21:22;;;;;;;44.80;32.72;;;17.00;99.90;;;;;;5018805;28;20529;-85
2021/06/25 01:26:36;;;;;;;45.03;32.47;;;17.00;99.90;;;;;;5016574;28;20053;-80
2021/06/25 01:29:08;;;;;;;44.17;31.98;;;17.00;99.90;;;;;;5019917;28;20054;-79
2021/06/25 01:31:47;;;;;;;45.30;31.48;;;17.00;99.90;;;;;;5018495;28;20160;-81
2021/06/25 01:34:25;;;;;;;43.92;31.35;;;16.90;99.90;;;;;;5018828;28;20060;-80
2021/06/25 01:37:23;;;;;;;45.45;31.63;;;16.90;99.90;;;;;;5020188;28;20477;-80
2021/06/25 01:50:03;;;;;;;44.83;32.60;;;16.70;99.90;;;;;;5021354;28;20084;-81
2021/06/25 01:52:52;;;;;;;43.78;31.95;;;16.60;99.90;;;;;;5020640;28;20104;-83
2021/06/25 01:56:25;;;;;;;;;;;;;;;;;;;;;
2021/06/25 01:58:52;;;;;;;44.47;32.95;;;16.50;99.90;;;;;;5104398;22;20114;-80
2021/06/25 02:01:19;;;;;;;43.88;33.38;;;16.40;99.90;;;;;;5048372;28;20131;-80
2021/06/25 02:03:48;;;;;;;46.55;33.55;;;16.30;99.90;;;;;;5056830;28;20052;-81
2021/06/25 02:06:15;;;;;;;43.85;32.85;;;16.20;99.90;;;;;;5057339;28;20055;-81
2021/06/25 02:08:44;;;;;;;44.67;34.63;;;16.20;99.90;;;;;;5057242;28;20147;-81
2021/06/25 02:11:12;;;;;;;45.95;34.42;;;16.10;99.90;;;;;;5057158;28;20044;-82
2021/06/25 02:13:39;;;;;;;44.42;34.25;;;16.10;99.90;;;;;;5057154;28;20517;-81
2021/06/25 02:16:07;;;;;;;39.72;32.60;;;16.10;99.90;;;;;;5057226;28;20105;-81
2021/06/25 02:18:34;;;;;;;43.85;33.83;;;16.10;99.90;;;;;;5057204;28;20148;-83
2021/06/25 02:21:01;;;;;;;42.83;32.22;;;16.20;99.90;;;;;;5056967;28;20049;-81
2021/06/25 02:23:28;;;;;;;39.85;32.20;;;16.10;99.90;;;;;;5056811;28;20052;-81
2021/06/25 02:25:56;;;;;;;43.55;33.10;;;16.20;99.90;;;;;;5056769;28;20117;-81
2021/06/25 02:28:23;;;;;;;40.72;33.22;;;16.20;99.90;;;;;;5056695;28;20095;-81
2021/06/25 02:30:50;;;;;;;46.53;33.35;;;16.20;99.90;;;;;;5056616;28;20084;-81
2021/06/25 02:33:17;;;;;;;44.45;34.75;;;16.30;99.90;;;;;;5058696;28;20105;-80
2021/06/25 02:35:44;;;;;;;40.85;33.13;;;16.30;99.90;;;;;;5057221;28;20469;-79
2021/06/25 02:38:11;;;;;;;42.17;33.30;;;16.30;99.90;;;;;;5056253;28;20122;-80
2021/06/25 02:40:37;;;;;;;42.65;32.60;;;16.30;99.90;;;;;;5057076;28;20098;-81
2021/06/25 02:43:06;;;;;;;44.60;33.35;;;16.30;99.90;;;;;;5060688;28;20084;-80
2021/06/25 02:45:33;;;;;;;44.75;34.53;;;16.20;99.90;;;;;;5061320;28;20083;-78
2021/06/25 02:48:00;;;;;;;42.63;32.85;;;16.20;99.90;;;;;;5057556;28;20077;-82
2021/06/25 02:50:27;;;;;;;43.17;34.58;;;16.10;99.90;;;;;;5057142;28;20509;-82
2021/06/25 02:52:55;;;;;;;43.60;34.90;;;16.10;99.90;;;;;;5056828;28;20111;-81
2021/06/25 02:55:22;;;;;;;43.60;33.88;;;16.10;99.90;;;;;;5058868;28;20103;-81
2021/06/25 02:57:49;;;;;;;39.65;33.00;;;16.00;99.90;;;;;;5060275;28;20489;-81
2021/06/25 03:00:19;;;;;;;40.85;32.42;;;16.00;99.90;;;;;;5060036;28;20390;-81
2021/06/25 03:02:46;;;;;;;41.80;32.90;;;16.10;99.90;;;;;;5059236;28;20074;-81
2021/06/25 03:05:14;;;;;;;43.60;33.78;;;16.10;99.90;;;;;;5059051;28;20109;-81
2021/06/25 03:07:41;;;;;;;42.13;33.58;;;16.00;99.90;;;;;;5056904;28;20045;-81
2021/06/25 03:10:10;;;;;;;41.22;32.30;;;16.00;99.90;;;;;;5057649;28;20056;-82
2021/06/25 03:12:37;;;;;;;42.03;32.30;;;16.00;99.90;;;;;;5058577;28;20132;-81
2021/06/25 03:15:04;;;;;;;44.72;32.08;;;16.00;99.90;;;;;;5057880;28;20102;-80
2021/06/25 03:17:33;;;;;;;41.63;32.13;;;15.90;99.90;;;;;;5056324;28;20128;-80
2021/06/25 03:20:00;;;;;;;42.20;33.30;;;15.80;99.90;;;;;;5055505;28;20085;-80
2021/06/25 03:22:26;;;;;;;42.38;33.15;;;15.60;99.90;;;;;;5056102;28;20063;-81
2021/06/25 03:24:53;;;;;;;44.05;33.97;;;15.50;99.90;;;;;;5056082;28;20424;-81
2021/06/25 03:27:20;;;;;;;40.22;32.42;;;15.60;99.90;;;;;;5056020;28;20048;-81
2021/06/25 03:29:47;;;;;;;40.47;32.67;;;15.60;99.90;;;;;;5055185;28;20109;-80
2021/06/25 03:32:14;;;;;;;46.00;34.65;;;15.60;99.90;;;;;;5055923;28;20135;-81
2021/06/25 03:34:43;;;;;;;48.58;34.83;;;15.60;99.90;;;;;;5055985;28;20136;-80
2021/06/25 03:37:10;;;;;;;44.30;33.85;;;15.70;99.90;;;;;;5055565;28;20131;-81
2021/06/25 03:39:37;;;;;;;44.47;33.75;;;15.70;99.90;;;;;;5055431;28;20099;-81
2021/06/25 03:42:05;;;;;;;48.72;34.58;;;15.70;99.90;;;;;;5055181;28;20101;-80
2021/06/25 03:44:31;;;;;;;41.30;33.08;;;15.80;99.90;;;;;;5055394;28;20099;-81
2021/06/25 03:47:00;;;;;;;42.28;33.72;;;15.80;99.90;;;;;;5055640;28;20107;-81
2021/06/25 03:49:27;;;;;;;41.60;33.95;;;15.80;99.90;;;;;;5057049;28;20136;-81
2021/06/25 03:51:55;;;;;;;39.03;31.80;;;15.80;99.90;;;;;;5057599;28;20132;-81
2021/06/25 03:54:22;;;;;;;47.70;33.75;;;15.80;99.90;;;;;;5058246;28;20103;-81
2021/06/25 03:56:49;;;;;;;43.70;34.45;;;15.90;99.90;;;;;;5060106;28;20077;-80
2021/06/25 03:59:16;;;;;;;48.45;34.53;;;15.90;99.90;;;;;;5058391;28;20099;-81
2021/06/25 04:01:43;;;;;;;41.40;32.92;;;15.90;99.90;;;;;;5069059;28;20079;-80
2021/06/25 04:04:10;;;;;;;41.80;33.25;;;15.90;99.90;;;;;;5068338;28;20045;-80
2021/06/25 04:06:37;;;;;;;40.42;34.08;;;15.90;99.90;;;;;;5065592;28;20052;-80
2021/06/25 04:09:06;;;;;;;47.35;35.85;;;15.90;99.90;;;;;;5058388;28;20459;-81
2021/06/25 04:11:34;;;;;;;44.70;34.08;;;15.90;99.90;;;;;;5061065;28;20102;-81
2021/06/25 04:14:01;;;;;;;49.05;34.97;;;15.90;99.90;;;;;;5061021;28;20104;-80
2021/06/25 04:16:27;;;;;;;40.97;33.80;;;16.00;99.90;;;;;;5059366;28;20144;-80
2021/06/25 04:18:54;;;;;;;44.90;34.83;;;16.00;99.90;;;;;;5057838;28;20072;-80
2021/06/25 04:21:27;;;;;;;42.85;34.75;;;16.00;99.90;;;;;;5060296;28;20107;-80
2021/06/25 04:23:53;;;;;;;43.67;33.60;;;16.10;99.90;;;;;;5060237;28;20417;-81
2021/06/25 04:26:22;;;;;;;44.15;33.65;;;16.10;99.90;;;;;;5061282;28;20108;-81
2021/06/25 04:28:49;;;;;;;42.03;34.28;;;16.10;99.90;;;;;;5059439;28;20080;-81
2021/06/25 04:31:15;;;;;;;42.58;34.38;;;16.20;99.90;;;;;;5059250;28;20098;-82
2021/06/25 04:33:42;;;;;;;45.15;34.88;;;16.30;99.90;;;;;;5058465;28;20045;-81
2021/06/25 04:36:09;;;;;;;40.97;34.47;;;16.30;99.90;;;;;;5059045;28;20080;-81
2021/06/25 04:38:36;;;;;;;45.25;36.08;;;16.30;99.90;;;;;;5060182;28;20123;-80
2021/06/25 04:41:04;;;;;;;43.63;34.85;;;16.40;99.90;;;;;;5059119;28;20141;-82
2021/06/25 04:43:32;;;;;;;47.05;36.25;;;16.50;99.90;;;;;;5058270;28;20087;-80
2021/06/25 04:46:00;;;;;;;41.60;35.38;;;16.60;99.90;;;;;;5058278;28;20136;-80
2021/06/25 04:48:27;;;;;;;44.67;34.97;;;16.70;99.90;;;;;;5057539;28;20117;-80
2021/06/25 04:50:55;;;;;;;44.85;35.03;;;16.80;99.90;;;;;;5059618;28;20045;-80
2021/06/25 04:53:22;;;;;;;42.25;33.53;;;16.90;99.90;;;;;;5059901;28;20076;-80
2021/06/25 04:55:48;;;;;;;48.88;34.75;;;16.90;99.90;;;;;;5059759;28;20128;-81
2021/06/25 04:58:17;;;;;;;44.70;34.35;;;17.00;99.90;;;;;;5058298;28;20131;-81
2021/06/25 05:00:46;;;;;;;42.70;34.35;;;17.00;99.90;;;;;;5058049;28;20060;-79
2021/06/25 05:03:13;;;;;;;43.78;34.85;;;17.10;99.90;;;;;;5058715;28;20084;-80
2021/06/25 05:05:42;;;;;;;44.00;33.80;;;17.20;99.90;;;;;;5061530;28;20060;-81
2021/06/25 05:08:09;;;;;;;41.33;33.63;;;17.30;99.90;;;;;;5062469;28;20129;-81
2021/06/25 05:10:36;;;;;;;46.70;36.42;;;17.40;99.90;;;;;;5060615;28;20482;-81
2021/06/25 05:13:03;;;;;;;42.88;36.67;;;17.50;99.90;;;;;;5057906;28;20130;-83
2021/06/25 05:15:31;;;;;;;44.75;36.75;;;17.50;99.90;;;;;;5060557;28;20080;-81
2021/06/25 05:18:10;;;;;;;47.95;38.10;;;17.60;99.90;;;;;;5059898;28;20494;-83
2021/06/25 05:20:37;;;;;;;47.15;38.50;;;17.60;99.90;;;;;;5059429;28;20069;-82
2021/06/25 05:23:04;;;;;;;50.83;39.58;;;17.60;99.90;;;;;;5058384;28;20080;-81
2021/06/25 05:25:30;;;;;;;53.35;39.78;;;17.50;99.90;;;;;;5059338;28;20585;-81
2021/06/25 05:27:57;;;;;;;45.42;37.45;;;17.60;99.90;;;;;;5059383;28;20563;-82
2021/06/25 05:30:24;;;;;;;43.05;34.35;;;17.90;99.90;;;;;;5062490;28;20088;-80
2021/06/25 05:32:51;;;;;;;42.88;35.30;;;18.30;99.90;;;;;;5059228;28;20076;-82
2021/06/25 05:35:20;;;;;;;37.28;32.45;;;19.00;99.90;;;;;;5060735;28;20121;-81
2021/06/25 05:37:46;;;;;;;40.88;35.22;;;19.80;99.90;;;;;;5060696;28;20045;-81
2021/06/25 05:40:14;;;;;;;38.05;33.97;;;20.60;99.90;;;;;;5064049;28;20049;-81
2021/06/25 05:42:41;;;;;;;37.83;31.83;;;21.50;99.90;;;;;;5064923;28;20045;-82
2021/06/25 05:45:09;;;;;;;36.08;32.17;;;22.20;99.90;;;;;;5064855;28;20060;-80
2021/06/25 05:47:36;;;;;;;37.83;33.33;;;22.90;99.90;;;;;;5068951;28;20064;-81
2021/06/25 05:50:04;;;;;;;51.33;34.28;;;23.30;99.90;;;;;;5065390;28;20072;-79
2021/06/25 05:52:32;;;;;;;46.05;33.22;;;23.90;99.90;;;;;;5055388;28;20052;-82
2021/06/25 05:54:59;;;;;;;39.88;34.47;;;24.40;99.90;;;;;;5046428;28;20041;-79
2021/06/25 05:57:26;;;;;;;39.15;31.90;;;24.80;99.90;;;;;;5047821;28;20406;-80
2021/06/25 05:59:53;;;;;;;35.67;31.50;;;25.10;99.90;;;;;;5047001;28;20073;-81
2021/06/25 06:02:20;;;;;;;39.20;31.35;;;25.20;99.90;;;;;;5048294;28;20081;-80
2021/06/25 06:04:47;;;;;;;39.28;29.38;;;25.20;99.90;;;;;;5047608;28;20131;-79
2021/06/25 06:07:14;;;;;;;31.65;27.30;;;25.20;99.90;;;;;;5047659;28;20119;-78
2021/06/25 06:09:42;;;;;;;36.42;27.55;;;25.60;99.90;;;;;;5044421;28;20053;-78
2021/06/25 06:12:10;;;;;;;27.67;24.42;;;25.80;99.90;;;;;;5033390;28;20053;-81
2021/06/25 06:14:37;;;;;;;35.20;25.70;;;25.40;99.90;;;;;;5039765;28;20049;-79
2021/06/25 06:17:04;;;;;;;29.77;26.58;;;25.10;99.90;;;;;;5038537;28;20060;-79
2021/06/25 06:19:39;;;;;;;31.38;26.23;;;24.60;99.90;;;;;;5041659;28;20057;-81
2021/06/25 06:33:18;;;;;;;28.70;22.98;;;24.10;99.90;;;;;;5040910;28;20056;-81
2021/06/25 06:35:45;;;;;;;25.30;22.60;;;24.50;99.90;;;;;;5042385;28;20045;-81
2021/06/25 06:38:12;;;;;;;29.80;21.75;;;24.80;99.90;;;;;;5042522;28;20045;-82
2021/06/25 06:40:40;;;;;;;21.35;18.95;;;25.20;99.90;;;;;;5042115;28;20155;-83
2021/06/25 06:43:07;;;;;;;25.90;19.90;;;25.70;99.90;;;;;;5039568;28;20080;-82
2021/06/25 06:45:35;;;;;;;20.90;18.67;;;25.80;99.90;;;;;;5039800;28;20095;-84
2021/06/25 06:48:04;;;;;;;22.70;17.17;;;26.20;99.90;;;;;;5039356;28;20049;-83
2021/06/25 06:50:31;;;;;;;19.63;17.58;;;26.20;99.90;;;;;;5039672;28;20053;-85
2021/06/25 06:52:57;;;;;;;20.58;18.45;;;26.10;99.90;;;;;;5040028;28;20057;-82
2021/06/25 06:55:25;;;;;;;21.67;18.58;;;26.20;99.90;;;;;;5040224;28;20081;-84
2021/06/25 06:57:54;;;;;;;22.00;18.83;;;26.00;99.90;;;;;;5040027;28;20068;-85
2021/06/25 07:00:22;;;;;;;26.92;19.00;;;25.70;99.90;;;;;;5039649;28;20088;-84
2021/06/25 07:02:49;;;;;;;23.50;19.83;;;25.40;99.90;;;;;;5040957;28;20132;-84
2021/06/25 07:05:17;;;;;;;23.83;20.23;;;25.50;99.90;;;;;;5042143;28;20117;-81
2021/06/25 07:07:44;;;;;;;22.55;18.48;;;25.50;99.90;;;;;;5053995;28;20049;-83
2021/06/25 07:10:12;;;;;;;21.70;19.15;;;25.50;99.90;;;;;;5050806;28;20049;-84
2021/06/25 07:12:41;;;;;;;35.63;20.80;;;25.40;99.90;;;;;;5040701;28;20060;-84
2021/06/25 07:15:10;;;;;;;26.17;18.70;;;25.30;99.90;;;;;;5039699;28;20088;-85
2021/06/25 07:17:37;;;;;;;27.55;18.52;;;25.40;99.90;;;;;;5043267;28;20092;-82
2021/06/25 07:20:06;;;;;;;25.27;16.63;;;25.80;99.90;;;;;;5046306;28;20052;-83
2021/06/25 07:22:33;;;;;;;22.35;17.42;;;26.50;99.90;;;;;;5043388;28;20056;-85
2021/06/25 07:25:00;;;;;;;26.58;18.15;;;27.40;99.90;;;;;;5040172;28;20080;-82
2021/06/25 07:27:28;;;;;;;21.08;18.45;;;27.60;99.90;;;;;;5038976;28;20041;-84
2021/06/25 07:29:55;;;;;;;23.13;19.92;;;27.60;99.90;;;;;;5039648;28;20053;-84
2021/06/25 07:32:23;;;;;;;23.88;18.08;;;27.50;99.90;;;;;;5042378;28;20114;-83
2021/06/25 07:34:50;;;;;;;27.33;18.98;;;27.50;99.90;;;;;;5040658;28;20160;-84
2021/06/25 07:37:17;;;;;;;23.60;17.85;;;27.60;99.90;;;;;;5040581;28;20073;-85
2021/06/25 07:39:44;;;;;;;23.60;18.08;;;27.70;99.90;;;;;;5040441;28;20081;-84
2021/06/25 07:42:11;;;;;;;25.63;17.80;;;28.00;99.90;;;;;;5041411;28;20080;-84
2021/06/25 07:44:38;;;;;;;18.55;16.52;;;27.80;99.90;;;;;;5041049;28;20084;-84
2021/06/25 07:47:05;;;;;;;30.70;18.08;;;27.70;99.90;;;;;;5041439;28;20049;-84
2021/06/25 07:49:34;;;;;;;19.30;17.05;;;27.50;99.90;;;;;;5041474;28;20076;-85
2021/06/25 07:52:01;;;;;;;23.77;15.90;;;27.30;99.90;;;;;;5039738;28;20133;-83
2021/06/25 07:54:28;;;;;;;20.50;15.93;;;27.00;99.90;;;;;;5039171;28;20071;-84
2021/06/25 07:56:55;;;;;;;17.55;15.55;;;26.90;99.90;;;;;;5040552;28;20080;-83
2021/06/25 08:04:26;;;;;;;18.10;15.10;;;27.20;99.90;;;;;;5009103;28;20116;-82
2021/06/25 08:06:55;;;;;;;16.25;14.23;;;27.20;99.90;;;;;;5025605;28;20053;-82
2021/06/25 08:09:22;;;;;;;19.27;15.23;;;27.50;99.90;;;;;;5027260;28;20046;-81
2021/06/25 08:11:49;;;;;;;17.38;14.85;;;27.90;99.90;;;;;;5026940;28;20061;-81
2021/06/25 08:14:16;;;;;;;18.95;13.88;;;27.90;99.90;;;;;;5027305;28;20077;-81
2021/06/25 08:16:42;;;;;;;17.95;14.02;;;27.70;99.90;;;;;;5027798;28;20046;-82
2021/06/25 08:19:09;;;;;;;18.35;14.00;;;27.30;99.90;;;;;;5027501;28;20078;-81
2021/06/25 08:21:36;;;;;;;20.80;14.25;;;27.60;99.90;;;;;;5024874;28;20057;-80
2021/06/25 08:24:06;;;;;;;18.70;14.43;;;27.40;99.90;;;;;;5027203;28;20093;-83
2021/06/25 08:26:33;;;;;;;17.98;14.90;;;27.30;99.90;;;;;;5026858;28;20078;-80
2021/06/25 08:29:00;;;;;;;18.60;13.73;;;27.20;99.90;;;;;;5022713;28;20148;-82
2021/06/25 08:31:27;;;;;;;16.63;14.27;;;27.20;99.90;;;;;;5026584;28;20069;-82
2021/06/25 08:33:54;;;;;;;17.30;14.90;;;27.10;99.90;;;;;;5022941;28;20551;-82
2021/06/25 08:36:20;;;;;;;19.70;14.35;;;26.90;99.90;;;;;;5022955;28;20054;-81
2021/06/25 08:38:47;;;;;;;15.18;13.13;;;26.90;99.90;;;;;;5025830;28;20049;-83
2021/06/25 08:41:16;;;;;;;15.73;14.05;;;27.00;99.90;;;;;;5024917;28;20123;-82
2021/06/25 08:43:56;;;;;;;15.20;13.70;;;27.20;99.90;;;;;;5023984;28;20094;-84
2021/06/25 08:46:24;;;;;;;22.35;14.48;;;27.20;99.90;;;;;;5024791;28;20149;-84
2021/06/25 08:48:53;;;;;;;17.48;14.40;;;27.20;99.90;;;;;;5025828;28;20104;-83
2021/06/25 08:51:21;;;;;;;16.13;14.40;;;26.70;99.90;;;;;;5027478;28;20498;-83
2021/06/25 08:53:48;;;;;;;19.70;13.82;;;26.50;99.90;;;;;;5027776;28;20072;-82
2021/06/25 08:56:17;;;;;;;15.23;13.63;;;26.40;99.90;;;;;;5025825;28;20050;-85
2021/06/25 08:58:44;;;;;;;16.05;13.85;;;26.50;99.90;;;;;;5029238;28;20065;-84
2021/06/25 09:01:15;;;;;;;14.77;13.07;;;26.80;99.90;;;;;;5028215;28;20049;-85
2021/06/25 09:03:50;;;;;;;17.75;13.52;;;27.30;99.90;;;;;;5026167;28;20054;-83
2021/06/25 09:06:17;;;;;;;15.75;13.60;;;28.00;99.90;;;;;;5026719;28;20068;-82
2021/06/25 09:08:44;;;;;;;18.85;13.65;;;27.80;99.90;;;;;;5024114;28;20061;-82
2021/06/25 09:11:22;;;;;;;15.82;12.95;;;27.50;99.90;;;;;;5024578;28;20088;-83
2021/06/25 09:13:57;;;;;;;14.38;12.85;;;27.60;99.90;;;;;;5026036;28;20054;-83
2021/06/25 09:16:26;;;;;;;14.52;12.57;;;27.70;99.90;;;;;;5025041;28;20061;-83
2021/06/25 09:18:58;;;;;;;14.23;12.70;;;27.70;99.90;;;;;;5024916;28;20042;-84
2021/06/25 09:21:25;;;;;;;;;;;27.50;99.90;;;;;;5023555;28;20426;-83
2021/06/25 09:23:52;;;;;;;15.70;14.00;;;27.50;99.90;;;;;;5022970;28;19921;-82
2021/06/25 09:26:23;;;;;;;17.92;12.88;;;26.90;99.90;;;;;;5023572;28;20064;-83
2021/06/25 09:28:52;;;;;;;15.50;13.07;;;26.10;99.90;;;;;;5022933;28;20053;-83
2021/06/25 09:31:22;;;;;;;15.50;13.25;;;25.60;99.90;;;;;;5024620;28;20050;-81
2021/06/25 09:33:50;;;;;;;16.02;13.15;;;25.20;99.90;;;;;;5024203;28;20054;-83
2021/06/25 09:36:22;;;;;;;16.20;13.02;;;25.20;99.90;;;;;;5023540;28;20508;-82
2021/06/25 09:38:57;;;;;;;19.13;12.68;;;25.30;99.90;;;;;;5022919;28;20050;-84
2021/06/25 09:41:27;;;;;;;18.65;14.45;;;25.50;99.90;;;;;;5023394;28;20050;-83
2021/06/25 09:43:56;;;;;;;17.58;14.30;;;25.50;99.90;;;;;;5023635;28;20046;-84
2021/06/25 09:46:30;;;;;;;15.02;13.30;;;25.40;99.90;;;;;;5026136;28;20057;-84
2021/06/25 09:49:00;;;;;;;17.10;13.45;;;25.30;99.90;;;;;;5027497;28;20050;-83
2021/06/25 09:51:28;;;;;;;15.55;13.95;;;25.30;99.90;;;;;;5025899;28;20050;-83
2021/06/25 09:54:18;;;;;;;15.10;13.15;;;25.40;99.90;;;;;;5023720;28;20109;-83
2021/06/25 09:56:51;;;;;;;14.98;13.20;;;25.30;99.90;;;;;;5004201;28;20060;-83
2021/06/25 09:59:28;;;;;;;15.82;12.43;;;25.10;99.90;;;;;;5023037;28;20050;-83
2021/06/25 10:01:56;;;;;;;15.40;13.57;;;25.10;99.90;;;;;;5023393;28;20064;-84
2021/06/25 10:04:37;;;;;;;14.50;13.00;;;24.90;99.90;;;;;;5024700;28;20062;-82
2021/06/25 10:07:12;;;;;;;15.13;13.02;;;24.90;99.90;;;;;;5026583;28;20105;-85
2021/06/25 10:09:39;;;;;;;16.58;12.18;;;25.20;99.90;;;;;;5023896;28;20086;-83
2021/06/25 10:12:11;;;;;;;14.40;12.88;;;25.30;99.90;;;;;;5025357;28;20056;-82
2021/06/25 10:14:39;;;;;;;16.08;13.45;;;25.40;99.90;;;;;;5023561;28;20058;-84
2021/06/25 10:17:11;;;;;;;19.98;13.68;;;25.30;99.90;;;;;;5028028;28;20064;-84
2021/06/25 10:19:39;;;;;;;15.43;12.93;;;25.30;99.90;;;;;;5028381;28;20046;-82
2021/06/25 10:22:08;;;;;;;14.95;13.30;;;25.40;99.90;;;;;;5027978;28;20105;-85
2021/06/25 10:24:55;;;;;;;14.05;12.55;;;25.60;99.90;;;;;;5028214;28;20054;-84
2021/06/25 10:27:24;;;;;;;16.42;13.45;;;25.70;99.90;;;;;;5028749;28;20054;-83
2021/06/25 10:29:52;;;;;;;15.50;13.15;;;25.60;99.90;;;;;;5026085;28;20046;-83
2021/06/25 10:32:20;;;;;;;13.98;12.45;;;25.40;99.90;;;;;;5026930;28;20062;-81
2021/06/25 10:34:50;;;;;;;16.10;13.40;;;25.20;99.90;;;;;;5026440;28;20387;-82
2021/06/25 10:37:22;;;;;;;15.05;13.45;;;25.00;99.90;;;;;;5026337;28;20050;-82
2021/06/25 10:39:49;;;;;;;14.27;12.88;;;25.00;99.90;;;;;;5026257;28;20054;-83
2021/06/25 10:42:17;;;;;;;14.98;13.45;;;25.00;99.90;;;;;;5027260;28;20050;-84
2021/06/25 10:44:46;;;;;;;15.30;13.32;;;24.90;99.90;;;;;;5023884;28;20050;-82
2021/06/25 10:47:25;;;;;;;17.10;14.25;;;24.90;99.90;;;;;;5024790;28;20073;-82
2021/06/25 10:50:29;;;;;;;14.68;13.18;;;24.90;99.90;;;;;;5026545;28;20066;-81
2021/06/25 10:53:26;;;;;;;14.73;13.10;;;24.90;99.90;;;;;;5024200;28;20057;-82
2021/06/25 10:56:04;;;;;;;16.52;12.60;;;24.90;99.90;;;;;;5025852;28;20077;-81
2021/06/25 10:58:31;;;;;;;16.38;13.02;;;24.90;99.90;;;;;;5025431;28;20046;-83
2021/06/25 11:01:05;;;;;;;15.05;13.43;;;25.10;99.90;;;;;;5024144;28;20057;-82
2021/06/25 11:03:45;;;;;;;16.15;13.93;;;25.30;99.90;;;;;;5023154;28;20050;-82
2021/06/25 11:06:55;;;;;;;13.98;12.57;;;25.50;99.90;;;;;;5020890;28;20069;-82
2021/06/25 11:09:28;;;;;;;13.25;11.80;;;25.40;99.90;;;;;;5020821;28;20046;-81
2021/06/25 11:12:17;;;;;;;15.10;12.40;;;25.40;99.90;;;;;;5021530;28;20070;-81
2021/06/25 11:14:44;;;;;;;13.82;12.25;;;25.50;99.90;;;;;;5018957;28;20053;-80
2021/06/25 11:17:13;;;;;;;17.52;12.88;;;25.60;99.90;;;;;;5023658;28;20054;-82
2021/06/25 11:19:42;;;;;;;13.70;12.20;;;25.70;99.90;;;;;;5014902;28;20045;-80
2021/06/25 11:22:36;;;;;;;15.93;11.60;;;25.90;99.90;;;;;;5013922;28;20144;-80
2021/06/25 11:25:03;;;;;;;15.40;12.35;;;25.90;99.90;;;;;;5014794;28;20115;-79
2021/06/25 11:28:09;;;;;;;15.65;13.60;;;25.90;99.90;;;;;;5016854;28;20522;-81
2021/06/25 11:30:58;;;;;;;14.32;12.88;;;26.00;99.90;;;;;;5017215;28;20079;-81
2021/06/25 11:33:29;;;;;;;16.02;11.90;;;26.10;99.90;;;;;;5017647;28;20475;-80
2021/06/25 11:36:17;;;;;;;14.48;12.70;;;26.40;99.90;;;;;;5016935;28;20463;-81
2021/06/25 11:38:58;;;;;;;16.55;12.88;;;26.50;99.90;;;;;;5015854;28;20061;-82
2021/06/25 11:41:27;;;;;;;14.82;13.27;;;26.40;99.90;;;;;;5015469;28;20101;-82
2021/06/25 11:43:54;;;;;;;15.02;13.63;;;26.10;99.90;;;;;;5015212;28;20057;-82
2021/06/25 11:46:22;;;;;;;14.70;13.10;;;25.70;99.90;;;;;;5015274;28;20077;-82
2021/06/25 11:48:50;;;;;;;15.45;13.82;;;25.40;99.90;;;;;;5014541;28;20520;-82
2021/06/25 11:51:21;;;;;;;14.57;13.07;;;25.30;99.90;;;;;;5015555;28;20103;-82
2021/06/25 11:53:50;;;;;;;13.70;12.27;;;25.40;99.90;;;;;;5016434;28;20050;-78
2021/06/25 11:56:18;;;;;;;13.93;11.32;;;25.50;99.90;;;;;;5021763;28;20054;-82
2021/06/25 11:58:56;;;;;;;16.52;13.15;;;25.60;99.90;;;;;;5020432;28;20050;-81
2021/06/25 12:01:23;;;;;;;15.70;13.40;;;25.80;99.90;;;;;;5021546;28;20109;-81
2021/06/25 12:03:52;;;;;;;15.85;13.73;;;26.00;99.90;;;;;;5018838;28;20054;-81
2021/06/25 12:06:19;;;;;;;15.63;13.13;;;25.90;99.90;;;;;;5017325;28;20089;-81
2021/06/25 12:08:54;;;;;;;15.45;13.27;;;26.00;99.90;;;;;;5017558;28;20056;-83
2021/06/25 12:11:22;;;;;;;14.70;13.20;;;26.00;99.90;;;;;;5015784;28;20058;-82
2021/06/25 12:13:57;;;;;;;18.70;14.27;;;26.00;99.90;;;;;;5016739;28;20108;-82
2021/06/25 12:16:24;;;;;;;17.52;14.25;;;26.00;99.90;;;;;;5016231;28;20081;-81
2021/06/25 12:18:52;;;;;;;16.20;14.55;;;25.90;99.90;;;;;;5016581;28;20481;-80
2021/06/25 12:21:21;;;;;;;16.25;13.82;;;25.90;99.90;;;;;;5015785;28;20475;-81
2021/06/25 12:23:51;;;;;;;16.33;13.93;;;26.10;99.90;;;;;;5015386;28;20572;-81
2021/06/25 12:26:20;;;;;;;16.83;15.02;;;26.10;99.90;;;;;;5017094;28;20049;-81
2021/06/25 12:28:48;;;;;;;16.85;14.75;;;26.20;99.90;;;;;;5016687;28;20061;-81
2021/06/25 12:31:18;;;;;;;20.02;17.25;;;26.30;99.90;;;;;;5016873;28;20050;-82
2021/06/25 12:33:46;;;;;;;17.55;15.73;;;25.70;99.90;;;;;;5019315;28;20502;-81
2021/06/25 12:36:15;;;;;;;16.27;14.63;;;25.60;99.90;;;;;;5023048;28;20069;-81
2021/06/25 12:38:43;;;;;;;15.02;13.50;;;25.70;99.90;;;;;;5018621;28;20129;-81
2021/06/25 12:41:13;;;;;;;16.17;13.63;;;25.90;99.90;;;;;;5017848;28;20061;-82
2021/06/25 12:43:42;;;;;;;19.40;13.98;;;26.10;99.90;;;;;;5016489;28;20120;-81
2021/06/25 12:46:12;;;;;;;17.13;14.05;;;26.10;99.90;;;;;;5018904;28;20088;-83
2021/06/25 12:48:40;;;;;;;19.67;14.85;;;26.10;99.90;;;;;;5019151;28;20054;-81
2021/06/25 12:51:11;;;;;;;15.27;13.77;;;26.00;99.90;;;;;;5019223;28;20042;-82
2021/06/25 12:53:43;;;;;;;14.63;13.15;;;26.10;99.90;;;;;;5019330;28;20136;-82
2021/06/25 12:56:16;;;;;;;15.77;13.77;;;26.30;99.90;;;;;;5018961;28;20060;-83
2021/06/25 12:58:43;;;;;;;15.05;13.45;;;26.20;99.00;;;;;;5021556;28;20100;-82
2021/06/25 13:01:11;;;;;;;16.35;13.75;;;26.00;99.30;;;;;;5020702;28;20129;-80
2021/06/25 13:03:39;;;;;;;18.30;14.48;;;26.00;99.90;;;;;;5019893;28;20477;-81
2021/06/25 13:06:25;;;;;;;16.42;14.38;;;26.00;99.90;;;;;;5019496;28;20140;-81
2021/06/25 13:08:53;;;;;;;14.70;13.25;;;25.90;99.40;;;;;;5019963;28;20105;-82
2021/06/25 13:11:25;;;;;;;15.00;13.23;;;25.80;99.90;;;;;;5019992;28;20107;-80